sensor_id;sensor_type;location;lat;lon;timestamp;P1;durP1;ratioP1;P2;durP2;ratioP2
59145;SDS011;44928;53.074;6.646;2022-07-23T00:02:07;7.88;;;2.65;;
59145;SDS011;44928;53.074;6.646;2022-07-23T00:04:33;8.43;;;3.00;;
59145;SDS011;44928;53.074;6.646;2022-07-23T00:06:59;7.25;;;2.85;;
59145;SDS011;44928;53.074;6.646;2022-07-23T00:09:25;8.27;;;3.38;;
59145;SDS011;44928;53.074;6.646;2022-07-23T00:11:51;9.13;;;3.40;;
59145;SDS011;44928;53.074;6.646;2022-07-23T00:14:17;7.85;;;2.67;;
59145;SDS011;44928;53.074;6.646;2022-07-23T00:16:42;8.98;;;2.75;;
59145;SDS011;44928;53.074;6.646;2022-07-23T00:19:08;7.32;;;2.95;;
59145;SDS011;44928;53.074;6.646;2022-07-23T00:21:34;7.40;;;2.55;;
59145;SDS011;44928;53.074;6.646;2022-07-23T00:23:59;7.05;;;2.67;;
59145;SDS011;44928;53.074;6.646;2022-07-23T00:26:25;7.22;;;2.47;;
59145;SDS011;44928;53.074;6.646;2022-07-23T00:28:51;7.30;;;2.50;;
59145;SDS011;44928;53.074;6.646;2022-07-23T00:31:16;7.05;;;2.38;;
59145;SDS011;44928;53.074;6.646;2022-07-23T00:33:42;7.53;;;2.65;;
59145;SDS011;44928;53.074;6.646;2022-07-23T00:36:08;8.07;;;2.70;;
59145;SDS011;44928;53.074;6.646;2022-07-23T00:38:34;6.25;;;2.50;;
59145;SDS011;44928;53.074;6.646;2022-07-23T00:40:59;6.55;;;2.25;;
59145;SDS011;44928;53.074;6.646;2022-07-23T00:43:25;6.55;;;2.20;;
59145;SDS011;44928;53.074;6.646;2022-07-23T00:45:51;8.15;;;3.00;;
59145;SDS011;44928;53.074;6.646;2022-07-23T00:48:17;7.95;;;3.08;;
59145;SDS011;44928;53.074;6.646;2022-07-23T00:50:43;7.15;;;2.85;;
59145;SDS011;44928;53.074;6.646;2022-07-23T00:53:09;6.85;;;2.80;;
59145;SDS011;44928;53.074;6.646;2022-07-23T00:55:35;8.10;;;3.33;;
59145;SDS011;44928;53.074;6.646;2022-07-23T00:58:01;8.48;;;3.47;;
59145;SDS011;44928;53.074;6.646;2022-07-23T01:00:27;7.90;;;3.20;;
59145;SDS011;44928;53.074;6.646;2022-07-23T01:02:53;9.50;;;3.10;;
59145;SDS011;44928;53.074;6.646;2022-07-23T01:05:19;7.85;;;3.63;;
59145;SDS011;44928;53.074;6.646;2022-07-23T01:07:50;5.93;;;2.50;;
59145;SDS011;44928;53.074;6.646;2022-07-23T01:10:17;6.80;;;2.95;;
59145;SDS011;44928;53.074;6.646;2022-07-23T01:15:24;7.10;;;2.88;;
59145;SDS011;44928;53.074;6.646;2022-07-23T01:17:49;6.90;;;2.78;;
59145;SDS011;44928;53.074;6.646;2022-07-23T01:20:15;8.35;;;3.15;;
59145;SDS011;44928;53.074;6.646;2022-07-23T01:22:41;7.28;;;3.15;;
59145;SDS011;44928;53.074;6.646;2022-07-23T01:25:07;7.65;;;3.13;;
59145;SDS011;44928;53.074;6.646;2022-07-23T01:27:34;7.32;;;3.08;;
59145;SDS011;44928;53.074;6.646;2022-07-23T01:30:00;8.05;;;3.05;;
59145;SDS011;44928;53.074;6.646;2022-07-23T01:32:26;7.18;;;2.90;;
59145;SDS011;44928;53.074;6.646;2022-07-23T01:34:52;7.15;;;3.00;;
59145;SDS011;44928;53.074;6.646;2022-07-23T01:37:18;7.85;;;3.63;;
59145;SDS011;44928;53.074;6.646;2022-07-23T01:39:43;7.75;;;3.00;;
59145;SDS011;44928;53.074;6.646;2022-07-23T01:42:09;6.93;;;3.28;;
59145;SDS011;44928;53.074;6.646;2022-07-23T01:44:35;7.63;;;3.22;;
59145;SDS011;44928;53.074;6.646;2022-07-23T01:47:00;7.20;;;3.10;;
59145;SDS011;44928;53.074;6.646;2022-07-23T01:49:26;9.57;;;3.13;;
59145;SDS011;44928;53.074;6.646;2022-07-23T01:51:52;6.80;;;3.10;;
59145;SDS011;44928;53.074;6.646;2022-07-23T01:54:27;7.25;;;3.10;;
59145;SDS011;44928;53.074;6.646;2022-07-23T01:56:58;6.10;;;3.10;;
59145;SDS011;44928;53.074;6.646;2022-07-23T01:59:24;6.97;;;3.15;;
59145;SDS011;44928;53.074;6.646;2022-07-23T02:01:50;7.18;;;3.42;;
59145;SDS011;44928;53.074;6.646;2022-07-23T02:04:17;8.30;;;3.22;;
59145;SDS011;44928;53.074;6.646;2022-07-23T02:06:47;7.40;;;3.20;;
59145;SDS011;44928;53.074;6.646;2022-07-23T02:09:13;6.95;;;3.30;;
59145;SDS011;44928;53.074;6.646;2022-07-23T02:11:39;7.25;;;3.33;;
59145;SDS011;44928;53.074;6.646;2022-07-23T02:14:05;9.43;;;3.83;;
59145;SDS011;44928;53.074;6.646;2022-07-23T02:16:31;7.93;;;3.80;;
59145;SDS011;44928;53.074;6.646;2022-07-23T02:18:56;8.25;;;3.70;;
59145;SDS011;44928;53.074;6.646;2022-07-23T02:21:22;8.02;;;3.72;;
59145;SDS011;44928;53.074;6.646;2022-07-23T02:23:48;7.25;;;3.42;;
59145;SDS011;44928;53.074;6.646;2022-07-23T02:26:14;9.27;;;3.20;;
59145;SDS011;44928;53.074;6.646;2022-07-23T02:28:39;8.00;;;3.40;;
59145;SDS011;44928;53.074;6.646;2022-07-23T02:31:05;7.95;;;3.40;;
59145;SDS011;44928;53.074;6.646;2022-07-23T02:33:32;8.38;;;3.30;;
59145;SDS011;44928;53.074;6.646;2022-07-23T02:35:58;8.10;;;3.78;;
59145;SDS011;44928;53.074;6.646;2022-07-23T02:38:24;8.43;;;3.53;;
59145;SDS011;44928;53.074;6.646;2022-07-23T02:40:50;8.68;;;3.80;;
59145;SDS011;44928;53.074;6.646;2022-07-23T02:43:16;8.13;;;3.53;;
59145;SDS011;44928;53.074;6.646;2022-07-23T02:45:41;8.70;;;3.97;;
59145;SDS011;44928;53.074;6.646;2022-07-23T02:48:07;8.38;;;3.60;;
59145;SDS011;44928;53.074;6.646;2022-07-23T02:50:33;9.00;;;3.70;;
59145;SDS011;44928;53.074;6.646;2022-07-23T02:52:58;7.82;;;3.33;;
59145;SDS011;44928;53.074;6.646;2022-07-23T02:55:24;7.07;;;3.60;;
59145;SDS011;44928;53.074;6.646;2022-07-23T02:57:50;8.63;;;3.72;;
59145;SDS011;44928;53.074;6.646;2022-07-23T03:00:16;7.45;;;3.45;;
59145;SDS011;44928;53.074;6.646;2022-07-23T03:02:42;5.70;;;2.75;;
59145;SDS011;44928;53.074;6.646;2022-07-23T03:05:07;7.80;;;3.45;;
59145;SDS011;44928;53.074;6.646;2022-07-23T03:07:33;7.80;;;3.58;;
59145;SDS011;44928;53.074;6.646;2022-07-23T03:09:59;9.23;;;4.15;;
59145;SDS011;44928;53.074;6.646;2022-07-23T03:12:25;7.80;;;3.78;;
59145;SDS011;44928;53.074;6.646;2022-07-23T03:14:51;8.43;;;3.65;;
59145;SDS011;44928;53.074;6.646;2022-07-23T03:17:16;8.10;;;4.10;;
59145;SDS011;44928;53.074;6.646;2022-07-23T03:19:42;8.68;;;4.50;;
59145;SDS011;44928;53.074;6.646;2022-07-23T03:22:08;9.40;;;4.78;;
59145;SDS011;44928;53.074;6.646;2022-07-23T03:24:34;8.38;;;4.40;;
59145;SDS011;44928;53.074;6.646;2022-07-23T03:27:18;8.95;;;5.00;;
59145;SDS011;44928;53.074;6.646;2022-07-23T03:29:44;10.23;;;5.03;;
59145;SDS011;44928;53.074;6.646;2022-07-23T03:32:10;9.23;;;5.25;;
59145;SDS011;44928;53.074;6.646;2022-07-23T03:34:35;8.50;;;4.30;;
59145;SDS011;44928;53.074;6.646;2022-07-23T03:37:01;9.77;;;4.38;;
59145;SDS011;44928;53.074;6.646;2022-07-23T03:39:27;9.27;;;4.80;;
59145;SDS011;44928;53.074;6.646;2022-07-23T03:41:53;9.70;;;4.25;;
59145;SDS011;44928;53.074;6.646;2022-07-23T03:44:18;10.05;;;4.63;;
59145;SDS011;44928;53.074;6.646;2022-07-23T03:46:44;8.57;;;4.63;;
59145;SDS011;44928;53.074;6.646;2022-07-23T03:49:10;9.40;;;4.97;;
59145;SDS011;44928;53.074;6.646;2022-07-23T03:51:35;10.32;;;4.90;;
59145;SDS011;44928;53.074;6.646;2022-07-23T03:54:01;11.45;;;4.72;;
59145;SDS011;44928;53.074;6.646;2022-07-23T03:56:27;8.63;;;4.78;;
59145;SDS011;44928;53.074;6.646;2022-07-23T03:58:52;10.10;;;4.50;;
59145;SDS011;44928;53.074;6.646;2022-07-23T04:01:18;10.15;;;4.90;;
59145;SDS011;44928;53.074;6.646;2022-07-23T04:03:44;10.63;;;4.20;;
59145;SDS011;44928;53.074;6.646;2022-07-23T04:06:11;8.48;;;4.40;;
59145;SDS011;44928;53.074;6.646;2022-07-23T04:08:37;9.27;;;4.78;;
59145;SDS011;44928;53.074;6.646;2022-07-23T04:11:03;8.15;;;3.83;;
59145;SDS011;44928;53.074;6.646;2022-07-23T04:13:29;8.02;;;3.92;;
59145;SDS011;44928;53.074;6.646;2022-07-23T04:15:54;8.98;;;4.45;;
59145;SDS011;44928;53.074;6.646;2022-07-23T04:18:20;8.82;;;4.38;;
59145;SDS011;44928;53.074;6.646;2022-07-23T04:20:48;8.18;;;4.13;;
59145;SDS011;44928;53.074;6.646;2022-07-23T04:23:16;9.38;;;4.45;;
59145;SDS011;44928;53.074;6.646;2022-07-23T04:25:42;8.38;;;3.58;;
59145;SDS011;44928;53.074;6.646;2022-07-23T04:28:08;9.25;;;4.30;;
59145;SDS011;44928;53.074;6.646;2022-07-23T04:30:34;9.20;;;4.50;;
59145;SDS011;44928;53.074;6.646;2022-07-23T04:32:59;8.75;;;4.40;;
59145;SDS011;44928;53.074;6.646;2022-07-23T04:35:25;8.23;;;4.20;;
59145;SDS011;44928;53.074;6.646;2022-07-23T04:37:51;10.73;;;4.68;;
59145;SDS011;44928;53.074;6.646;2022-07-23T04:40:17;8.82;;;4.28;;
59145;SDS011;44928;53.074;6.646;2022-07-23T04:42:43;8.55;;;4.47;;
59145;SDS011;44928;53.074;6.646;2022-07-23T04:45:09;9.07;;;4.13;;
59145;SDS011;44928;53.074;6.646;2022-07-23T04:47:35;7.65;;;4.32;;
59145;SDS011;44928;53.074;6.646;2022-07-23T04:50:00;7.88;;;3.75;;
59145;SDS011;44928;53.074;6.646;2022-07-23T04:52:26;9.18;;;4.60;;
59145;SDS011;44928;53.074;6.646;2022-07-23T04:54:52;9.18;;;4.75;;
59145;SDS011;44928;53.074;6.646;2022-07-23T04:57:17;8.93;;;4.32;;
59145;SDS011;44928;53.074;6.646;2022-07-23T04:59:43;8.38;;;4.18;;
59145;SDS011;44928;53.074;6.646;2022-07-23T05:02:09;8.40;;;4.18;;
59145;SDS011;44928;53.074;6.646;2022-07-23T05:04:34;9.63;;;4.20;;
59145;SDS011;44928;53.074;6.646;2022-07-23T05:07:00;7.88;;;4.13;;
59145;SDS011;44928;53.074;6.646;2022-07-23T05:09:26;9.10;;;4.30;;
59145;SDS011;44928;53.074;6.646;2022-07-23T05:11:52;8.75;;;4.30;;
59145;SDS011;44928;53.074;6.646;2022-07-23T05:14:17;11.98;;;5.30;;
59145;SDS011;44928;53.074;6.646;2022-07-23T05:16:43;9.00;;;4.28;;
59145;SDS011;44928;53.074;6.646;2022-07-23T05:19:09;8.13;;;4.43;;
59145;SDS011;44928;53.074;6.646;2022-07-23T05:21:34;9.77;;;4.47;;
59145;SDS011;44928;53.074;6.646;2022-07-23T05:24:00;9.90;;;4.25;;
59145;SDS011;44928;53.074;6.646;2022-07-23T05:26:26;8.55;;;4.53;;
59145;SDS011;44928;53.074;6.646;2022-07-23T05:28:52;11.75;;;4.80;;
59145;SDS011;44928;53.074;6.646;2022-07-23T05:31:17;10.88;;;4.22;;
59145;SDS011;44928;53.074;6.646;2022-07-23T05:33:43;10.98;;;4.72;;
59145;SDS011;44928;53.074;6.646;2022-07-23T05:36:09;8.57;;;4.35;;
59145;SDS011;44928;53.074;6.646;2022-07-23T05:38:35;8.07;;;4.40;;
59145;SDS011;44928;53.074;6.646;2022-07-23T05:41:01;9.00;;;4.35;;
59145;SDS011;44928;53.074;6.646;2022-07-23T05:43:27;8.05;;;3.47;;
59145;SDS011;44928;53.074;6.646;2022-07-23T05:45:52;7.40;;;3.85;;
59145;SDS011;44928;53.074;6.646;2022-07-23T05:48:18;9.05;;;3.95;;
59145;SDS011;44928;53.074;6.646;2022-07-23T05:50:44;9.57;;;4.45;;
59145;SDS011;44928;53.074;6.646;2022-07-23T05:53:11;8.32;;;3.83;;
59145;SDS011;44928;53.074;6.646;2022-07-23T05:55:37;9.60;;;3.47;;
59145;SDS011;44928;53.074;6.646;2022-07-23T05:58:03;10.38;;;3.92;;
59145;SDS011;44928;53.074;6.646;2022-07-23T06:00:29;8.55;;;3.42;;
59145;SDS011;44928;53.074;6.646;2022-07-23T06:02:56;10.23;;;3.72;;
59145;SDS011;44928;53.074;6.646;2022-07-23T06:05:22;9.00;;;3.95;;
59145;SDS011;44928;53.074;6.646;2022-07-23T06:07:47;7.72;;;3.58;;
59145;SDS011;44928;53.074;6.646;2022-07-23T06:10:13;6.78;;;3.00;;
59145;SDS011;44928;53.074;6.646;2022-07-23T06:12:39;9.00;;;3.50;;
59145;SDS011;44928;53.074;6.646;2022-07-23T06:15:06;9.70;;;3.47;;
59145;SDS011;44928;53.074;6.646;2022-07-23T06:17:38;7.53;;;3.17;;
59145;SDS011;44928;53.074;6.646;2022-07-23T06:20:32;8.82;;;3.35;;
59145;SDS011;44928;53.074;6.646;2022-07-23T06:23:30;8.63;;;3.38;;
59145;SDS011;44928;53.074;6.646;2022-07-23T06:25:56;8.93;;;3.70;;
59145;SDS011;44928;53.074;6.646;2022-07-23T06:28:22;9.02;;;3.55;;
59145;SDS011;44928;53.074;6.646;2022-07-23T06:30:48;10.05;;;2.95;;
59145;SDS011;44928;53.074;6.646;2022-07-23T06:33:16;6.40;;;2.67;;
59145;SDS011;44928;53.074;6.646;2022-07-23T06:35:42;8.32;;;2.88;;
59145;SDS011;44928;53.074;6.646;2022-07-23T06:38:07;9.13;;;2.85;;
59145;SDS011;44928;53.074;6.646;2022-07-23T06:40:33;7.93;;;2.78;;
59145;SDS011;44928;53.074;6.646;2022-07-23T06:42:59;6.35;;;2.50;;
59145;SDS011;44928;53.074;6.646;2022-07-23T06:45:25;7.40;;;2.33;;
59145;SDS011;44928;53.074;6.646;2022-07-23T06:47:50;6.82;;;2.00;;
59145;SDS011;44928;53.074;6.646;2022-07-23T06:50:16;7.57;;;2.35;;
59145;SDS011;44928;53.074;6.646;2022-07-23T06:52:42;6.50;;;2.05;;
59145;SDS011;44928;53.074;6.646;2022-07-23T06:55:08;5.20;;;1.77;;
59145;SDS011;44928;53.074;6.646;2022-07-23T06:57:34;7.65;;;1.90;;
59145;SDS011;44928;53.074;6.646;2022-07-23T07:00:00;5.30;;;2.00;;
59145;SDS011;44928;53.074;6.646;2022-07-23T07:02:25;6.57;;;1.90;;
59145;SDS011;44928;53.074;6.646;2022-07-23T07:04:51;5.95;;;1.65;;
59145;SDS011;44928;53.074;6.646;2022-07-23T07:07:18;6.60;;;1.80;;
59145;SDS011;44928;53.074;6.646;2022-07-23T07:09:43;6.95;;;1.80;;
59145;SDS011;44928;53.074;6.646;2022-07-23T07:12:09;4.32;;;1.75;;
59145;SDS011;44928;53.074;6.646;2022-07-23T07:14:37;4.05;;;1.33;;
59145;SDS011;44928;53.074;6.646;2022-07-23T07:17:03;5.13;;;1.40;;
59145;SDS011;44928;53.074;6.646;2022-07-23T07:19:28;5.80;;;1.60;;
59145;SDS011;44928;53.074;6.646;2022-07-23T07:21:54;2.97;;;1.17;;
59145;SDS011;44928;53.074;6.646;2022-07-23T07:24:20;3.90;;;1.00;;
59145;SDS011;44928;53.074;6.646;2022-07-23T07:26:45;2.08;;;0.80;;
59145;SDS011;44928;53.074;6.646;2022-07-23T07:29:11;4.75;;;0.80;;
59145;SDS011;44928;53.074;6.646;2022-07-23T07:31:37;3.42;;;1.05;;
59145;SDS011;44928;53.074;6.646;2022-07-23T07:34:02;2.85;;;1.00;;
59145;SDS011;44928;53.074;6.646;2022-07-23T07:36:28;3.10;;;1.00;;
59145;SDS011;44928;53.074;6.646;2022-07-23T07:38:54;3.33;;;1.00;;
59145;SDS011;44928;53.074;6.646;2022-07-23T07:41:20;4.20;;;1.15;;
59145;SDS011;44928;53.074;6.646;2022-07-23T07:43:49;4.28;;;0.80;;
59145;SDS011;44928;53.074;6.646;2022-07-23T07:46:15;4.47;;;0.73;;
59145;SDS011;44928;53.074;6.646;2022-07-23T07:48:41;1.80;;;0.70;;
59145;SDS011;44928;53.074;6.646;2022-07-23T07:51:07;1.55;;;0.50;;
59145;SDS011;44928;53.074;6.646;2022-07-23T07:53:33;3.72;;;0.80;;
59145;SDS011;44928;53.074;6.646;2022-07-23T07:55:58;3.70;;;0.60;;
59145;SDS011;44928;53.074;6.646;2022-07-23T07:58:24;2.33;;;0.80;;
59145;SDS011;44928;53.074;6.646;2022-07-23T08:00:50;2.58;;;0.80;;
59145;SDS011;44928;53.074;6.646;2022-07-23T08:03:25;1.10;;;0.60;;
59145;SDS011;44928;53.074;6.646;2022-07-23T08:05:51;1.00;;;0.60;;
59145;SDS011;44928;53.074;6.646;2022-07-23T08:08:17;3.85;;;0.70;;
59145;SDS011;44928;53.074;6.646;2022-07-23T08:10:43;0.73;;;0.50;;
59145;SDS011;44928;53.074;6.646;2022-07-23T08:13:11;3.17;;;0.85;;
59145;SDS011;44928;53.074;6.646;2022-07-23T08:15:41;1.60;;;0.70;;
59145;SDS011;44928;53.074;6.646;2022-07-23T08:18:08;3.47;;;0.65;;
59145;SDS011;44928;53.074;6.646;2022-07-23T08:20:34;3.60;;;0.65;;
59145;SDS011;44928;53.074;6.646;2022-07-23T08:23:02;1.02;;;0.50;;
59145;SDS011;44928;53.074;6.646;2022-07-23T08:27:57;1.63;;;0.70;;
59145;SDS011;44928;53.074;6.646;2022-07-23T08:30:23;1.92;;;0.50;;
59145;SDS011;44928;53.074;6.646;2022-07-23T08:32:56;1.48;;;0.68;;
59145;SDS011;44928;53.074;6.646;2022-07-23T08:35:28;1.98;;;0.60;;
59145;SDS011;44928;53.074;6.646;2022-07-23T08:37:55;2.30;;;0.75;;
59145;SDS011;44928;53.074;6.646;2022-07-23T08:40:22;2.72;;;0.77;;
59145;SDS011;44928;53.074;6.646;2022-07-23T08:42:48;3.22;;;0.70;;
59145;SDS011;44928;53.074;6.646;2022-07-23T08:45:15;2.35;;;0.68;;
59145;SDS011;44928;53.074;6.646;2022-07-23T08:50:15;1.48;;;0.70;;
59145;SDS011;44928;53.074;6.646;2022-07-23T08:52:41;2.35;;;0.55;;
59145;SDS011;44928;53.074;6.646;2022-07-23T08:55:07;1.98;;;0.60;;
59145;SDS011;44928;53.074;6.646;2022-07-23T08:57:33;2.63;;;0.60;;
59145;SDS011;44928;53.074;6.646;2022-07-23T08:59:59;2.58;;;0.98;;
59145;SDS011;44928;53.074;6.646;2022-07-23T09:02:25;2.60;;;0.57;;
59145;SDS011;44928;53.074;6.646;2022-07-23T09:04:51;1.38;;;0.50;;
59145;SDS011;44928;53.074;6.646;2022-07-23T09:07:17;1.48;;;0.60;;
59145;SDS011;44928;53.074;6.646;2022-07-23T09:09:43;1.55;;;0.65;;
59145;SDS011;44928;53.074;6.646;2022-07-23T09:12:09;2.17;;;0.70;;
59145;SDS011;44928;53.074;6.646;2022-07-23T09:14:36;3.55;;;0.63;;
59145;SDS011;44928;53.074;6.646;2022-07-23T09:19:35;2.92;;;0.73;;
59145;SDS011;44928;53.074;6.646;2022-07-23T09:27:45;3.28;;;0.70;;
59145;SDS011;44928;53.074;6.646;2022-07-23T09:30:17;3.65;;;0.88;;
59145;SDS011;44928;53.074;6.646;2022-07-23T09:32:49;2.45;;;0.77;;
59145;SDS011;44928;53.074;6.646;2022-07-23T09:35:51;3.67;;;0.65;;
59145;SDS011;44928;53.074;6.646;2022-07-23T09:38:19;3.65;;;0.73;;
59145;SDS011;44928;53.074;6.646;2022-07-23T09:40:47;1.58;;;0.50;;
59145;SDS011;44928;53.074;6.646;2022-07-23T09:43:31;4.25;;;0.95;;
59145;SDS011;44928;53.074;6.646;2022-07-23T09:48:55;3.28;;;0.95;;
59145;SDS011;44928;53.074;6.646;2022-07-23T09:51:22;3.15;;;1.00;;
59145;SDS011;44928;53.074;6.646;2022-07-23T09:54:01;3.60;;;0.82;;
59145;SDS011;44928;53.074;6.646;2022-07-23T09:56:27;3.58;;;0.88;;
59145;SDS011;44928;53.074;6.646;2022-07-23T09:58:53;3.55;;;0.90;;
59145;SDS011;44928;53.074;6.646;2022-07-23T10:01:31;5.38;;;0.93;;
59145;SDS011;44928;53.074;6.646;2022-07-23T10:03:58;1.95;;;0.85;;
59145;SDS011;44928;53.074;6.646;2022-07-23T10:06:24;3.53;;;1.17;;
59145;SDS011;44928;53.074;6.646;2022-07-23T10:08:51;4.60;;;1.10;;
59145;SDS011;44928;53.074;6.646;2022-07-23T10:11:22;3.55;;;1.00;;
59145;SDS011;44928;53.074;6.646;2022-07-23T10:13:49;4.18;;;1.27;;
59145;SDS011;44928;53.074;6.646;2022-07-23T10:16:18;2.42;;;0.70;;
59145;SDS011;44928;53.074;6.646;2022-07-23T10:18:46;3.40;;;0.90;;
59145;SDS011;44928;53.074;6.646;2022-07-23T10:21:12;2.25;;;1.08;;
59145;SDS011;44928;53.074;6.646;2022-07-23T10:23:51;3.88;;;1.05;;
59145;SDS011;44928;53.074;6.646;2022-07-23T10:32:02;4.05;;;1.27;;
59145;SDS011;44928;53.074;6.646;2022-07-23T10:34:35;2.85;;;0.90;;
59145;SDS011;44928;53.074;6.646;2022-07-23T10:37:17;3.83;;;1.10;;
59145;SDS011;44928;53.074;6.646;2022-07-23T10:40:12;3.30;;;1.17;;
59145;SDS011;44928;53.074;6.646;2022-07-23T10:42:43;2.92;;;0.88;;
59145;SDS011;44928;53.074;6.646;2022-07-23T10:47:55;3.10;;;1.00;;
59145;SDS011;44928;53.074;6.646;2022-07-23T10:50:36;4.07;;;1.23;;
59145;SDS011;44928;53.074;6.646;2022-07-23T10:58:19;4.10;;;1.00;;
59145;SDS011;44928;53.074;6.646;2022-07-23T11:04:04;4.15;;;1.08;;
59145;SDS011;44928;53.074;6.646;2022-07-23T11:07:06;4.10;;;1.08;;
59145;SDS011;44928;53.074;6.646;2022-07-23T11:09:39;3.87;;;0.80;;
59145;SDS011;44928;53.074;6.646;2022-07-23T11:17:24;3.22;;;1.00;;
59145;SDS011;44928;53.074;6.646;2022-07-23T11:27:47;6.88;;;1.10;;
59145;SDS011;44928;53.074;6.646;2022-07-23T11:33:38;3.63;;;1.08;;
59145;SDS011;44928;53.074;6.646;2022-07-23T11:35:40;3.97;;;1.20;;
59145;SDS011;44928;53.074;6.646;2022-07-23T11:38:22;4.03;;;1.30;;
59145;SDS011;44928;53.074;6.646;2022-07-23T11:40:49;6.03;;;1.20;;
59145;SDS011;44928;53.074;6.646;2022-07-23T11:43:25;3.35;;;1.08;;
59145;SDS011;44928;53.074;6.646;2022-07-23T11:45:53;4.63;;;1.30;;
59145;SDS011;44928;53.074;6.646;2022-07-23T11:48:24;3.50;;;1.13;;
59145;SDS011;44928;53.074;6.646;2022-07-23T11:50:55;2.53;;;1.10;;
59145;SDS011;44928;53.074;6.646;2022-07-23T11:53:26;4.85;;;1.08;;
59145;SDS011;44928;53.074;6.646;2022-07-23T11:55:52;4.90;;;1.30;;
59145;SDS011;44928;53.074;6.646;2022-07-23T11:58:18;3.83;;;1.13;;
59145;SDS011;44928;53.074;6.646;2022-07-23T12:00:44;6.28;;;1.40;;
59145;SDS011;44928;53.074;6.646;2022-07-23T12:03:09;4.07;;;1.23;;
59145;SDS011;44928;53.074;6.646;2022-07-23T12:05:38;4.85;;;1.75;;
59145;SDS011;44928;53.074;6.646;2022-07-23T12:08:05;2.97;;;1.10;;
59145;SDS011;44928;53.074;6.646;2022-07-23T12:13:09;3.47;;;1.00;;
59145;SDS011;44928;53.074;6.646;2022-07-23T12:15:43;3.42;;;1.40;;
59145;SDS011;44928;53.074;6.646;2022-07-23T12:18:11;5.03;;;1.42;;
59145;SDS011;44928;53.074;6.646;2022-07-23T12:20:43;6.60;;;1.35;;
59145;SDS011;44928;53.074;6.646;2022-07-23T12:23:12;4.63;;;1.30;;
59145;SDS011;44928;53.074;6.646;2022-07-23T12:25:39;3.90;;;1.17;;
59145;SDS011;44928;53.074;6.646;2022-07-23T12:28:11;4.32;;;1.50;;
59145;SDS011;44928;53.074;6.646;2022-07-23T12:30:46;5.60;;;1.40;;
59145;SDS011;44928;53.074;6.646;2022-07-23T12:33:13;4.40;;;1.25;;
59145;SDS011;44928;53.074;6.646;2022-07-23T12:35:47;4.22;;;1.20;;
59145;SDS011;44928;53.074;6.646;2022-07-23T12:38:14;3.72;;;1.38;;
59145;SDS011;44928;53.074;6.646;2022-07-23T12:40:46;3.78;;;1.50;;
59145;SDS011;44928;53.074;6.646;2022-07-23T12:43:20;3.30;;;1.10;;
59145;SDS011;44928;53.074;6.646;2022-07-23T12:45:52;4.22;;;1.30;;
59145;SDS011;44928;53.074;6.646;2022-07-23T12:51:05;2.78;;;1.08;;
59145;SDS011;44928;53.074;6.646;2022-07-23T12:56:05;4.53;;;1.25;;
59145;SDS011;44928;53.074;6.646;2022-07-23T12:59:06;4.15;;;1.30;;
59145;SDS011;44928;53.074;6.646;2022-07-23T13:02:14;3.70;;;1.27;;
59145;SDS011;44928;53.074;6.646;2022-07-23T13:04:24;4.22;;;1.38;;
59145;SDS011;44928;53.074;6.646;2022-07-23T13:06:51;4.40;;;1.40;;
59145;SDS011;44928;53.074;6.646;2022-07-23T13:09:22;4.93;;;1.60;;
59145;SDS011;44928;53.074;6.646;2022-07-23T13:11:52;3.25;;;1.02;;
59145;SDS011;44928;53.074;6.646;2022-07-23T13:14:19;3.92;;;1.17;;
59145;SDS011;44928;53.074;6.646;2022-07-23T13:16:45;2.78;;;1.00;;
59145;SDS011;44928;53.074;6.646;2022-07-23T13:19:12;5.35;;;1.08;;
59145;SDS011;44928;53.074;6.646;2022-07-23T13:21:39;5.00;;;1.40;;
59145;SDS011;44928;53.074;6.646;2022-07-23T13:24:06;6.53;;;1.50;;
59145;SDS011;44928;53.074;6.646;2022-07-23T13:26:32;4.40;;;1.38;;
59145;SDS011;44928;53.074;6.646;2022-07-23T13:28:59;3.80;;;1.25;;
59145;SDS011;44928;53.074;6.646;2022-07-23T13:31:25;3.97;;;1.17;;
59145;SDS011;44928;53.074;6.646;2022-07-23T13:33:50;4.35;;;1.40;;
59145;SDS011;44928;53.074;6.646;2022-07-23T13:36:16;4.75;;;1.30;;
59145;SDS011;44928;53.074;6.646;2022-07-23T13:38:42;4.15;;;1.40;;
59145;SDS011;44928;53.074;6.646;2022-07-23T13:41:08;4.82;;;1.20;;
59145;SDS011;44928;53.074;6.646;2022-07-23T13:43:34;4.78;;;1.30;;
59145;SDS011;44928;53.074;6.646;2022-07-23T13:45:59;4.55;;;1.50;;
59145;SDS011;44928;53.074;6.646;2022-07-23T13:48:25;3.28;;;1.40;;
59145;SDS011;44928;53.074;6.646;2022-07-23T13:50:51;3.25;;;1.23;;
59145;SDS011;44928;53.074;6.646;2022-07-23T13:53:21;3.70;;;1.08;;
59145;SDS011;44928;53.074;6.646;2022-07-23T13:55:49;5.85;;;1.40;;
59145;SDS011;44928;53.074;6.646;2022-07-23T13:58:16;3.30;;;1.08;;
59145;SDS011;44928;53.074;6.646;2022-07-23T14:00:45;5.03;;;1.33;;
59145;SDS011;44928;53.074;6.646;2022-07-23T14:03:13;4.68;;;1.15;;
59145;SDS011;44928;53.074;6.646;2022-07-23T14:05:39;5.82;;;1.20;;
59145;SDS011;44928;53.074;6.646;2022-07-23T14:08:06;3.55;;;1.10;;
59145;SDS011;44928;53.074;6.646;2022-07-23T14:10:32;3.28;;;1.27;;
59145;SDS011;44928;53.074;6.646;2022-07-23T14:12:58;2.70;;;1.17;;
59145;SDS011;44928;53.074;6.646;2022-07-23T14:15:25;4.13;;;0.95;;
59145;SDS011;44928;53.074;6.646;2022-07-23T14:17:52;2.80;;;1.10;;
59145;SDS011;44928;53.074;6.646;2022-07-23T14:20:18;3.78;;;1.10;;
59145;SDS011;44928;53.074;6.646;2022-07-23T14:22:44;3.13;;;1.13;;
59145;SDS011;44928;53.074;6.646;2022-07-23T14:25:10;5.18;;;1.50;;
59145;SDS011;44928;53.074;6.646;2022-07-23T14:27:39;3.53;;;1.33;;
59145;SDS011;44928;53.074;6.646;2022-07-23T14:30:05;2.78;;;1.13;;
59145;SDS011;44928;53.074;6.646;2022-07-23T14:32:33;5.05;;;1.13;;
59145;SDS011;44928;53.074;6.646;2022-07-23T14:34:59;4.03;;;1.30;;
59145;SDS011;44928;53.074;6.646;2022-07-23T14:37:24;3.38;;;1.05;;
59145;SDS011;44928;53.074;6.646;2022-07-23T14:39:50;3.35;;;1.00;;
59145;SDS011;44928;53.074;6.646;2022-07-23T14:42:17;2.92;;;1.10;;
59145;SDS011;44928;53.074;6.646;2022-07-23T14:44:43;4.30;;;1.10;;
59145;SDS011;44928;53.074;6.646;2022-07-23T14:47:09;3.35;;;1.10;;
59145;SDS011;44928;53.074;6.646;2022-07-23T14:49:35;4.60;;;1.05;;
59145;SDS011;44928;53.074;6.646;2022-07-23T14:52:01;3.42;;;1.10;;
59145;SDS011;44928;53.074;6.646;2022-07-23T14:54:27;5.07;;;1.20;;
59145;SDS011;44928;53.074;6.646;2022-07-23T14:56:54;4.20;;;1.05;;
59145;SDS011;44928;53.074;6.646;2022-07-23T14:59:20;3.28;;;0.98;;
59145;SDS011;44928;53.074;6.646;2022-07-23T15:01:47;3.38;;;0.90;;
59145;SDS011;44928;53.074;6.646;2022-07-23T15:04:13;2.85;;;0.90;;
59145;SDS011;44928;53.074;6.646;2022-07-23T15:06:38;4.07;;;0.98;;
59145;SDS011;44928;53.074;6.646;2022-07-23T15:09:05;2.30;;;0.90;;
59145;SDS011;44928;53.074;6.646;2022-07-23T15:11:31;3.85;;;1.15;;
59145;SDS011;44928;53.074;6.646;2022-07-23T15:13:59;3.20;;;1.00;;
59145;SDS011;44928;53.074;6.646;2022-07-23T15:16:26;3.58;;;1.10;;
59145;SDS011;44928;53.074;6.646;2022-07-23T15:18:52;4.35;;;1.23;;
59145;SDS011;44928;53.074;6.646;2022-07-23T15:21:20;3.15;;;1.05;;
59145;SDS011;44928;53.074;6.646;2022-07-23T15:23:46;5.95;;;1.42;;
59145;SDS011;44928;53.074;6.646;2022-07-23T15:26:12;4.40;;;1.33;;
59145;SDS011;44928;53.074;6.646;2022-07-23T15:28:39;4.47;;;1.42;;
59145;SDS011;44928;53.074;6.646;2022-07-23T15:31:05;3.35;;;1.15;;
59145;SDS011;44928;53.074;6.646;2022-07-23T15:33:30;3.17;;;1.40;;
59145;SDS011;44928;53.074;6.646;2022-07-23T15:35:56;3.05;;;1.05;;
59145;SDS011;44928;53.074;6.646;2022-07-23T15:38:23;5.38;;;1.20;;
59145;SDS011;44928;53.074;6.646;2022-07-23T15:40:50;3.88;;;1.40;;
59145;SDS011;44928;53.074;6.646;2022-07-23T15:43:15;3.10;;;1.00;;
59145;SDS011;44928;53.074;6.646;2022-07-23T15:45:41;4.53;;;1.30;;
59145;SDS011;44928;53.074;6.646;2022-07-23T15:48:07;5.03;;;1.27;;
59145;SDS011;44928;53.074;6.646;2022-07-23T15:50:33;3.45;;;1.10;;